Thornville, Ohio
Current Conditions -  °F | °C
As of 2:54 AM on Thursday 27 Nov 2014 (Local Time) from KVTA Reporting Station
Overcast Overcast  
Wind Chill: -2°   Ceiling: 3500
Heat Index:   Visibility: 10mi
Dew Point: -3°   Wind: 5mph
Humidity: 75%   Direction: 330°NNW
Pressure: 30.03"   Gusts: NA
Location:  39.9°N, 82.42°W
Report Text: KVTA 270754Z AUTO 33004KT 10SM OVC035 01/M03 A3003 RMK AO2 SLP176 T00061033
Loading
Personal Weather Stations






























Interactive Weather Map New forecast layout! Learn more

10-Day Weather Forecast

Advertisements
Track Severe Weather on mobile